createdAt,value
2023-06-07T00:00:07.851Z,10.70
2023-06-07T00:02:26.281Z,11.83
2023-06-07T00:04:37.104Z,12.17
2023-06-07T00:06:40.989Z,11.23
2023-06-07T00:08:44.850Z,10.83
2023-06-07T00:10:47.252Z,12.00
2023-06-07T00:12:49.570Z,11.10
2023-06-07T00:14:52.674Z,11.23
2023-06-07T00:16:56.122Z,11.20
2023-06-07T00:18:58.826Z,11.50
2023-06-07T00:21:01.942Z,11.67
2023-06-07T00:23:05.951Z,12.10
2023-06-07T00:25:09.776Z,11.40
2023-06-07T00:27:11.932Z,11.63
2023-06-07T00:29:15.375Z,11.80
2023-06-07T00:31:17.562Z,11.67
2023-06-07T00:33:22.123Z,11.37
2023-06-07T00:35:24.506Z,12.20
2023-06-07T00:37:26.547Z,11.90
2023-06-07T00:39:29.530Z,12.20
2023-06-07T00:41:32.339Z,13.33
2023-06-07T00:43:35.041Z,13.40
2023-06-07T00:45:37.115Z,13.00
2023-06-07T00:47:40.062Z,12.57
2023-06-07T00:49:43.831Z,12.13
2023-06-07T00:51:46.898Z,13.07
2023-06-07T00:53:50.447Z,13.43
2023-06-07T00:55:52.446Z,13.43
2023-06-07T00:57:55.256Z,12.97
2023-06-07T00:59:57.475Z,15.43
2023-06-07T01:02:02.449Z,14.10
2023-06-07T01:04:07.049Z,14.47
2023-06-07T01:06:09.401Z,13.83
2023-06-07T01:08:12.624Z,13.67
2023-06-07T01:10:16.047Z,13.83
2023-06-07T01:12:18.993Z,13.77
2023-06-07T01:14:22.254Z,13.80
2023-06-07T01:16:24.330Z,14.80
2023-06-07T01:18:27.893Z,13.60
2023-06-07T01:20:30.584Z,14.00
2023-06-07T01:22:33.995Z,13.60
2023-06-07T01:24:40.453Z,12.93
2023-06-07T01:26:42.601Z,12.90
2023-06-07T01:28:46.258Z,14.67
2023-06-07T01:30:49.173Z,12.40
2023-06-07T01:32:53.472Z,14.63
2023-06-07T01:34:55.937Z,15.00
2023-06-07T01:36:58.090Z,15.30
2023-06-07T01:39:01.155Z,14.63
2023-06-07T01:41:03.293Z,14.03
2023-06-07T01:43:05.967Z,14.53
2023-06-07T01:45:09.344Z,13.63
2023-06-07T01:47:13.883Z,14.93
2023-06-07T01:49:18.769Z,15.53
2023-06-07T01:51:21.258Z,14.73
2023-06-07T01:53:23.513Z,15.03
2023-06-07T01:55:26.520Z,14.97
2023-06-07T01:57:39.870Z,14.70
2023-06-07T02:00:09.006Z,14.43
2023-06-07T02:02:49.902Z,15.47
2023-06-07T02:04:58.381Z,14.80
2023-06-07T02:07:02.682Z,14.87
2023-06-07T02:09:08.765Z,15.70
2023-06-07T02:11:12.692Z,15.63
2023-06-07T02:13:17.460Z,14.43
2023-06-07T02:15:22.807Z,14.70
2023-06-07T02:17:25.723Z,14.90
2023-06-07T02:19:27.850Z,14.97
2023-06-07T02:21:32.247Z,14.60
2023-06-07T02:23:34.963Z,15.17
2023-06-07T02:25:37.189Z,13.70
2023-06-07T02:27:39.210Z,16.57
2023-06-07T02:29:43.298Z,14.60
2023-06-07T02:31:46.499Z,14.73
2023-06-07T02:33:49.574Z,17.27
2023-06-07T02:35:51.998Z,16.40
2023-06-07T02:37:54.009Z,17.00
2023-06-07T02:39:56.120Z,17.67
2023-06-07T02:41:58.359Z,17.70
2023-06-07T02:44:00.902Z,18.63
2023-06-07T02:46:03.314Z,20.13
2023-06-07T02:48:06.408Z,18.00
2023-06-07T02:50:09.094Z,17.33
2023-06-07T02:52:12.575Z,16.93
2023-06-07T02:54:17.412Z,18.10
2023-06-07T02:56:20.006Z,18.00
2023-06-07T02:58:22.388Z,19.70
2023-06-07T03:00:24.494Z,17.63
2023-06-07T03:02:32.223Z,20.20
2023-06-07T03:04:34.995Z,19.13
2023-06-07T03:06:42.627Z,20.17
2023-06-07T03:08:57.563Z,22.40
2023-06-07T03:11:01.517Z,20.20
2023-06-07T03:13:08.016Z,20.87
2023-06-07T03:15:11.562Z,20.40
2023-06-07T03:17:18.286Z,20.70
2023-06-07T03:19:25.533Z,20.53
2023-06-07T03:21:29.450Z,21.23
2023-06-07T03:23:36.178Z,21.97
2023-06-07T03:25:39.100Z,20.60
2023-06-07T03:27:41.557Z,20.13
2023-06-07T03:29:55.286Z,21.20
2023-06-07T03:31:58.938Z,20.30
2023-06-07T03:34:01.094Z,21.43
2023-06-07T03:36:03.473Z,19.60
2023-06-07T03:38:08.897Z,20.17
2023-06-07T03:40:11.793Z,19.33
2023-06-07T03:42:13.958Z,19.67
2023-06-07T03:44:17.517Z,20.10
2023-06-07T03:46:20.568Z,18.67
2023-06-07T03:48:25.578Z,19.60
2023-06-07T03:50:28.815Z,20.33
2023-06-07T03:52:30.909Z,20.20
2023-06-07T03:54:34.328Z,20.40
2023-06-07T03:56:38.574Z,20.00
2023-06-07T03:58:42.304Z,20.63
2023-06-07T04:00:49.482Z,21.40
2023-06-07T04:02:51.935Z,20.03
2023-06-07T04:04:55.355Z,20.00
2023-06-07T04:06:57.404Z,21.40
2023-06-07T04:09:01.179Z,20.03
2023-06-07T04:11:03.403Z,19.80
2023-06-07T04:13:05.554Z,19.83
2023-06-07T04:15:09.534Z,20.87
2023-06-07T04:17:12.728Z,19.30
2023-06-07T04:19:14.845Z,21.27
2023-06-07T04:21:16.995Z,20.40
2023-06-07T04:23:21.946Z,19.47
2023-06-07T04:25:33.610Z,18.83
2023-06-07T04:27:39.334Z,17.50
2023-06-07T04:29:44.171Z,18.20
2023-06-07T04:31:47.835Z,17.07
2023-06-07T04:33:50.795Z,18.40
2023-06-07T04:35:58.689Z,17.10
2023-06-07T04:38:03.082Z,17.13
2023-06-07T04:40:07.213Z,17.43
2023-06-07T04:42:12.356Z,16.70
2023-06-07T04:44:14.738Z,15.97
2023-06-07T04:46:19.538Z,16.30
2023-06-07T04:48:25.393Z,16.00
2023-06-07T04:50:30.994Z,16.30
2023-06-07T04:52:33.567Z,16.53
2023-06-07T04:54:40.347Z,15.90
2023-06-07T04:56:43.867Z,16.20
2023-06-07T04:58:46.284Z,15.00
2023-06-07T05:00:52.759Z,14.70
2023-06-07T05:02:55.302Z,17.03
2023-06-07T05:04:58.799Z,16.23
2023-06-07T05:07:02.276Z,15.50
2023-06-07T05:09:08.127Z,13.90
2023-06-07T05:11:11.299Z,14.20
2023-06-07T05:13:13.422Z,12.70
2023-06-07T05:15:15.559Z,13.13
2023-06-07T05:17:20.486Z,12.03
2023-06-07T05:19:24.124Z,13.13
2023-06-07T05:21:27.176Z,11.03
2023-06-07T05:23:29.988Z,12.50
2023-06-07T05:25:33.141Z,12.40
2023-06-07T05:27:37.447Z,11.23
2023-06-07T05:29:39.682Z,10.80
2023-06-07T05:31:41.874Z,11.20
2023-06-07T05:33:43.912Z,11.80
2023-06-07T05:35:47.572Z,10.87
2023-06-07T05:37:51.709Z,11.57
2023-06-07T05:39:54.140Z,10.77
2023-06-07T05:41:56.364Z,10.90
2023-06-07T05:43:58.477Z,9.47
2023-06-07T05:46:01.397Z,10.47
2023-06-07T05:48:03.718Z,10.27
2023-06-07T05:50:11.358Z,11.07
2023-06-07T05:52:15.201Z,11.20
2023-06-07T05:54:17.574Z,11.27
2023-06-07T05:56:22.153Z,10.40
2023-06-07T05:58:24.262Z,9.30
2023-06-07T06:00:26.375Z,9.30
2023-06-07T06:02:31.080Z,11.03
2023-06-07T06:04:33.302Z,10.07
2023-06-07T06:06:37.329Z,10.83
2023-06-07T06:08:39.440Z,9.97
2023-06-07T06:10:41.912Z,10.60
2023-06-07T06:12:44.042Z,10.20
2023-06-07T06:14:54.526Z,9.37
2023-06-07T06:16:56.649Z,10.77
2023-06-07T06:18:58.812Z,9.27
2023-06-07T06:21:01.164Z,10.20
2023-06-07T06:23:05.161Z,9.50
2023-06-07T06:25:08.410Z,9.43
2023-06-07T06:27:11.999Z,9.80
2023-06-07T06:29:14.578Z,9.37
2023-06-07T06:31:17.126Z,9.60
2023-06-07T06:33:19.345Z,9.50
2023-06-07T06:35:21.767Z,8.27
2023-06-07T06:37:24.662Z,8.90
2023-06-07T06:39:26.842Z,9.10
2023-06-07T06:41:29.194Z,8.10
2023-06-07T06:43:31.385Z,8.87
2023-06-07T06:45:36.143Z,8.53
2023-06-07T06:49:44.595Z,7.40
2023-06-07T06:51:47.096Z,7.87
2023-06-07T06:53:49.208Z,7.40
2023-06-07T06:55:51.258Z,8.77
2023-06-07T06:57:53.439Z,6.97
2023-06-07T06:59:55.728Z,8.20
2023-06-07T07:01:58.134Z,7.80
2023-06-07T07:04:01.011Z,7.93
2023-06-07T07:06:03.106Z,7.70
2023-06-07T07:08:05.533Z,7.83
2023-06-07T07:10:08.434Z,7.27
2023-06-07T07:12:12.091Z,7.50
2023-06-07T07:14:14.237Z,7.27
2023-06-07T07:16:18.042Z,7.30
2023-06-07T07:18:20.306Z,7.83
2023-06-07T07:20:22.428Z,6.93
2023-06-07T07:22:26.823Z,7.70
2023-06-07T07:24:30.899Z,6.70
2023-06-07T07:26:32.891Z,6.50
2023-06-07T07:28:34.953Z,6.50
2023-06-07T07:30:37.085Z,7.13
2023-06-07T07:32:39.370Z,6.60
2023-06-07T07:34:42.288Z,6.43
2023-06-07T07:36:45.505Z,6.60
2023-06-07T07:38:47.590Z,7.43
2023-06-07T07:40:49.601Z,6.87
2023-06-07T07:42:51.628Z,6.57
2023-06-07T07:44:53.736Z,6.20
2023-06-07T07:46:55.855Z,6.80
2023-06-07T07:48:57.888Z,7.10
2023-06-07T07:51:01.059Z,6.10
2023-06-07T07:53:03.045Z,6.50
2023-06-07T07:55:06.266Z,6.43
2023-06-07T07:57:08.811Z,6.33
2023-06-07T07:59:13.207Z,5.90
2023-06-07T08:01:19.620Z,5.73
2023-06-07T08:03:22.779Z,6.37
2023-06-07T08:05:24.971Z,6.70
2023-06-07T08:07:27.076Z,6.10
2023-06-07T08:09:29.153Z,6.57
2023-06-07T08:11:31.178Z,7.43
2023-06-07T08:13:33.182Z,7.33
2023-06-07T08:15:35.379Z,6.87
2023-06-07T08:17:37.400Z,6.30
2023-06-07T08:19:40.039Z,7.17
2023-06-07T08:21:44.946Z,6.63
2023-06-07T08:23:47.141Z,6.47
2023-06-07T08:25:49.544Z,6.90
2023-06-07T08:27:51.867Z,6.07
2023-06-07T08:29:53.874Z,6.73
2023-06-07T08:31:56.943Z,6.90
2023-06-07T08:33:59.034Z,6.70
2023-06-07T08:36:01.221Z,7.70
2023-06-07T08:38:03.258Z,7.00
2023-06-07T08:40:07.369Z,6.90
2023-06-07T08:42:09.792Z,6.63
2023-06-07T08:44:11.925Z,7.43
2023-06-07T08:46:14.721Z,6.33
2023-06-07T08:48:17.678Z,6.73
2023-06-07T08:50:23.309Z,6.93
2023-06-07T08:52:26.479Z,6.47
2023-06-07T08:54:29.015Z,7.20
2023-06-07T08:56:35.122Z,7.27
2023-06-07T08:58:38.307Z,7.00
2023-06-07T09:00:40.719Z,6.47
2023-06-07T09:02:42.986Z,6.47
2023-06-07T09:04:46.175Z,6.23
2023-06-07T09:06:48.432Z,5.87
2023-06-07T09:08:50.994Z,6.40
2023-06-07T09:10:53.134Z,6.10
2023-06-07T09:12:55.290Z,5.67
2023-06-07T09:14:57.958Z,5.73
2023-06-07T09:17:01.057Z,6.33
2023-06-07T09:19:03.325Z,6.27
2023-06-07T09:21:20.291Z,6.83
2023-06-07T09:23:22.500Z,6.10
2023-06-07T09:25:24.604Z,6.00
2023-06-07T09:27:32.529Z,5.83
2023-06-07T09:29:44.318Z,5.87
2023-06-07T09:31:46.426Z,5.93
2023-06-07T09:33:48.474Z,6.00
2023-06-07T09:36:16.820Z,6.50
2023-06-07T09:38:26.988Z,5.57
2023-06-07T09:40:29.624Z,5.00
2023-06-07T09:42:32.011Z,5.60
2023-06-07T09:44:34.327Z,5.30
2023-06-07T09:46:37.534Z,5.87
2023-06-07T09:48:53.615Z,5.50
2023-06-07T09:50:59.820Z,5.40
2023-06-07T09:53:02.871Z,6.20
2023-06-07T09:55:09.790Z,5.00
2023-06-07T09:57:28.353Z,5.10
2023-06-07T09:59:30.948Z,5.20
2023-06-07T10:01:39.072Z,4.90
2023-06-07T10:03:48.398Z,5.60
2023-06-07T10:05:51.423Z,4.90
2023-06-07T10:07:56.800Z,5.37
2023-06-07T10:10:00.178Z,5.17
2023-06-07T10:12:03.375Z,4.90
2023-06-07T10:14:15.536Z,5.50
2023-06-07T10:16:18.037Z,5.20
2023-06-07T10:18:27.520Z,4.90
2023-06-07T10:20:32.141Z,6.20
2023-06-07T10:22:39.197Z,5.47
2023-06-07T10:25:09.773Z,5.87
2023-06-07T10:27:16.122Z,5.20
2023-06-07T10:29:26.365Z,5.10
2023-06-07T10:31:30.911Z,5.37
2023-06-07T10:33:36.812Z,5.27
2023-06-07T10:35:39.796Z,5.00
2023-06-07T10:37:44.346Z,5.87
2023-06-07T10:39:47.348Z,5.50
2023-06-07T10:41:49.825Z,5.53
2023-06-07T10:43:52.171Z,5.73
2023-06-07T10:46:20.626Z,5.70
2023-06-07T10:48:36.747Z,5.37
2023-06-07T10:50:49.312Z,4.80
2023-06-07T10:52:56.139Z,5.80
2023-06-07T10:54:58.464Z,5.40
2023-06-07T10:57:01.244Z,5.37
2023-06-07T10:59:16.156Z,5.30
2023-06-07T11:01:28.392Z,4.83
2023-06-07T11:03:34.657Z,4.67
2023-06-07T11:05:55.465Z,5.40
2023-06-07T11:08:28.024Z,5.57
2023-06-07T11:10:30.149Z,5.90
2023-06-07T11:12:46.223Z,4.97
2023-06-07T11:15:21.753Z,4.53
2023-06-07T11:17:58.085Z,6.10
2023-06-07T11:20:00.956Z,5.67
2023-06-07T11:22:06.460Z,5.43
2023-06-07T11:24:14.737Z,5.23
2023-06-07T11:26:17.389Z,5.13
2023-06-07T11:28:28.731Z,5.07
2023-06-07T11:30:31.373Z,5.20
2023-06-07T11:32:39.834Z,5.57
2023-06-07T11:34:42.262Z,5.03
2023-06-07T11:36:44.741Z,4.50
2023-06-07T11:38:50.498Z,5.27
2023-06-07T11:40:52.765Z,5.07
2023-06-07T11:42:55.110Z,5.10
2023-06-07T11:44:57.352Z,5.37
2023-06-07T11:47:01.724Z,4.50
2023-06-07T11:49:10.967Z,4.97
2023-06-07T11:51:13.608Z,4.80
2023-06-07T11:53:16.904Z,4.90
2023-06-07T11:55:19.382Z,4.77
2023-06-07T11:57:23.636Z,4.47
2023-06-07T11:59:26.992Z,4.53
2023-06-07T12:01:29.402Z,4.37
2023-06-07T12:03:31.931Z,4.40
2023-06-07T12:05:35.725Z,4.50
2023-06-07T12:07:39.650Z,4.93
2023-06-07T12:09:42.829Z,4.30
2023-06-07T12:11:46.393Z,4.13
2023-06-07T12:13:54.414Z,4.30
2023-06-07T12:15:58.054Z,4.47
2023-06-07T12:18:00.392Z,3.90
2023-06-07T12:20:15.549Z,4.50
2023-06-07T12:22:17.772Z,4.07
2023-06-07T12:24:20.093Z,4.20
2023-06-07T12:26:31.702Z,4.00
2023-06-07T12:28:34.416Z,4.20
2023-06-07T12:30:38.544Z,4.23
2023-06-07T12:32:40.819Z,4.73
2023-06-07T12:34:44.393Z,4.30
2023-06-07T12:36:46.592Z,3.70
2023-06-07T12:38:48.837Z,4.87
2023-06-07T12:40:51.356Z,4.30
2023-06-07T12:42:53.600Z,4.13
2023-06-07T12:44:55.918Z,3.83
2023-06-07T12:46:59.380Z,3.93
2023-06-07T12:49:02.387Z,4.07
2023-06-07T12:51:04.682Z,4.10
2023-06-07T12:53:07.197Z,4.60
2023-06-07T12:55:09.785Z,4.43
2023-06-07T12:57:12.060Z,4.57
2023-06-07T12:59:14.319Z,4.53
2023-06-07T13:01:19.314Z,4.20
2023-06-07T13:03:21.670Z,4.03
2023-06-07T13:05:23.949Z,4.60
2023-06-07T13:07:26.239Z,4.73
2023-06-07T13:09:28.447Z,4.10
2023-06-07T13:11:30.655Z,4.23
2023-06-07T13:13:33.198Z,4.10
2023-06-07T13:15:35.722Z,4.50
2023-06-07T13:17:38.317Z,4.10
2023-06-07T13:19:40.700Z,4.07
2023-06-07T13:21:42.942Z,4.50
2023-06-07T13:23:45.658Z,4.17
2023-06-07T13:25:47.875Z,4.13
2023-06-07T13:27:50.230Z,4.67
2023-06-07T13:29:52.401Z,4.80
2023-06-07T13:31:54.671Z,5.10
2023-06-07T13:33:57.017Z,5.40
2023-06-07T13:35:59.210Z,4.97
2023-06-07T13:38:01.470Z,4.47
2023-06-07T13:40:04.257Z,5.10
2023-06-07T13:42:07.567Z,4.63
2023-06-07T13:44:17.912Z,4.10
2023-06-07T13:46:21.583Z,4.20
2023-06-07T13:48:24.012Z,4.83
2023-06-07T13:50:26.353Z,4.83
2023-06-07T13:52:29.265Z,4.43
2023-06-07T13:54:33.171Z,4.50
2023-06-07T13:56:35.610Z,4.67
2023-06-07T13:58:38.333Z,5.10
2023-06-07T14:00:41.515Z,5.20
2023-06-07T14:02:44.396Z,4.33
2023-06-07T14:04:49.543Z,4.00
2023-06-07T14:06:52.596Z,4.47
2023-06-07T14:08:54.957Z,4.60
2023-06-07T14:11:00.580Z,4.50
2023-06-07T14:13:03.883Z,6.47
2023-06-07T14:15:07.569Z,4.50
2023-06-07T14:17:10.112Z,4.37
2023-06-07T14:19:12.372Z,4.57
2023-06-07T14:21:15.188Z,4.70
2023-06-07T14:23:17.356Z,4.77
2023-06-07T14:25:20.488Z,4.17
2023-06-07T14:27:23.280Z,5.00
2023-06-07T14:29:25.564Z,4.27
2023-06-07T14:31:28.767Z,4.97
2023-06-07T14:33:31.042Z,5.17
2023-06-07T14:35:33.299Z,5.20
2023-06-07T14:37:35.519Z,4.30
2023-06-07T14:39:37.751Z,5.27
2023-06-07T14:41:40.096Z,5.00
2023-06-07T14:43:42.286Z,5.47
2023-06-07T14:45:44.731Z,5.40
2023-06-07T14:47:47.023Z,4.60
2023-06-07T14:49:49.640Z,4.43
2023-06-07T14:51:51.926Z,4.33
2023-06-07T14:53:54.126Z,4.90
2023-06-07T14:55:56.607Z,4.80
2023-06-07T14:58:01.449Z,4.53
2023-06-07T15:00:06.929Z,5.20
2023-06-07T15:02:10.478Z,5.20
2023-06-07T15:04:12.775Z,5.00
2023-06-07T15:06:15.128Z,5.30
2023-06-07T15:08:17.296Z,4.80
2023-06-07T15:10:19.484Z,4.90
2023-06-07T15:12:21.818Z,6.07
2023-06-07T15:14:24.063Z,5.90
2023-06-07T15:16:26.471Z,6.40
2023-06-07T15:18:28.714Z,6.67
2023-06-07T15:20:30.988Z,7.13
2023-06-07T15:22:33.380Z,6.60
2023-06-07T15:24:35.582Z,6.20
2023-06-07T15:26:37.766Z,6.27
2023-06-07T15:28:39.992Z,6.27
2023-06-07T15:30:42.196Z,6.27
2023-06-07T15:32:44.624Z,6.90
2023-06-07T15:34:47.173Z,6.87
2023-06-07T15:36:52.429Z,6.03
2023-06-07T15:38:54.895Z,7.07
2023-06-07T15:40:57.137Z,5.73
2023-06-07T15:42:59.322Z,6.47
2023-06-07T15:45:01.597Z,6.37
2023-06-07T15:47:05.085Z,6.33
2023-06-07T15:49:07.622Z,6.70
2023-06-07T15:51:09.885Z,6.00
2023-06-07T15:53:12.110Z,6.07
2023-06-07T15:55:14.332Z,6.70
2023-06-07T15:57:18.813Z,7.10
2023-06-07T15:59:21.714Z,6.30
2023-06-07T16:01:24.377Z,6.43
2023-06-07T16:03:29.094Z,6.80
2023-06-07T16:05:35.891Z,5.97
2023-06-07T16:07:38.347Z,7.03
2023-06-07T16:09:40.550Z,6.50
2023-06-07T16:11:42.979Z,5.80
2023-06-07T16:13:45.307Z,6.60
2023-06-07T16:15:47.568Z,6.90
2023-06-07T16:17:51.259Z,6.83
2023-06-07T16:19:53.591Z,7.13
2023-06-07T16:21:56.355Z,6.40
2023-06-07T16:23:58.696Z,6.13
2023-06-07T16:26:00.970Z,6.47
2023-06-07T16:28:03.202Z,6.20
2023-06-07T16:30:06.205Z,6.07
2023-06-07T16:32:09.100Z,6.80
2023-06-07T16:34:12.108Z,6.20
2023-06-07T16:36:14.356Z,6.23
2023-06-07T16:38:16.956Z,6.47
2023-06-07T16:40:19.211Z,6.27
2023-06-07T16:42:21.495Z,6.70
2023-06-07T16:44:23.781Z,6.93
2023-06-07T16:46:26.093Z,7.03
2023-06-07T16:48:28.364Z,7.40
2023-06-07T16:50:30.806Z,7.10
2023-06-07T16:52:34.100Z,6.97
2023-06-07T16:54:36.535Z,7.00
2023-06-07T16:56:38.830Z,7.30
2023-06-07T16:58:41.272Z,7.30
2023-06-07T17:00:43.533Z,7.20
2023-06-07T17:02:48.329Z,7.57
2023-06-07T17:04:51.748Z,6.40
2023-06-07T17:06:54.110Z,6.60
2023-06-07T17:08:56.301Z,6.50
2023-06-07T17:10:58.610Z,6.60
2023-06-07T17:13:00.801Z,6.60
2023-06-07T17:15:03.112Z,6.13
2023-06-07T17:17:05.546Z,5.67
2023-06-07T17:19:07.825Z,6.30
2023-06-07T17:21:11.816Z,8.17
2023-06-07T17:23:15.699Z,7.30
2023-06-07T17:25:18.282Z,7.23
2023-06-07T17:27:20.523Z,6.73
2023-06-07T17:29:30.063Z,6.77
2023-06-07T17:31:32.676Z,7.10
2023-06-07T17:33:34.974Z,7.43
2023-06-07T17:35:37.186Z,6.47
2023-06-07T17:37:39.416Z,6.33
2023-06-07T17:39:41.647Z,6.33
2023-06-07T17:41:44.287Z,5.97
2023-06-07T17:43:46.689Z,7.53
2023-06-07T17:45:48.975Z,6.27
2023-06-07T17:47:52.889Z,6.93
2023-06-07T17:49:55.141Z,6.00
2023-06-07T17:52:00.761Z,7.50
2023-06-07T17:54:09.493Z,6.50
2023-06-07T17:56:11.782Z,6.10
2023-06-07T17:58:14.272Z,6.40
2023-06-07T18:00:16.870Z,6.10
2023-06-07T18:02:20.948Z,6.63
2023-06-07T18:04:24.487Z,6.97
2023-06-07T18:06:26.785Z,6.90
2023-06-07T18:08:28.964Z,7.30
2023-06-07T18:10:31.256Z,7.13
2023-06-07T18:12:34.315Z,12.70
2023-06-07T18:14:36.515Z,9.70
2023-06-07T18:16:38.916Z,10.47
2023-06-07T18:18:41.312Z,10.70
2023-06-07T18:20:43.616Z,7.90
2023-06-07T18:22:45.816Z,7.47
2023-06-07T18:24:48.083Z,7.03
2023-06-07T18:26:50.292Z,7.60
2023-06-07T18:28:52.484Z,7.67
2023-06-07T18:30:54.785Z,8.73
2023-06-07T18:32:57.678Z,9.93
2023-06-07T18:35:00.051Z,10.27
2023-06-07T18:37:02.909Z,9.17
2023-06-07T18:39:05.167Z,8.53
2023-06-07T18:41:07.449Z,9.00
2023-06-07T18:43:11.821Z,8.80
2023-06-07T18:45:14.111Z,8.67
2023-06-07T18:47:16.522Z,7.50
2023-06-07T18:49:18.969Z,8.10
2023-06-07T18:51:22.007Z,8.30
2023-06-07T18:53:24.851Z,8.70
2023-06-07T18:55:27.040Z,8.73
2023-06-07T18:57:29.274Z,8.27
2023-06-07T18:59:31.786Z,8.40
2023-06-07T19:01:50.159Z,9.00
2023-06-07T19:03:53.978Z,8.40
2023-06-07T19:05:56.381Z,8.10
2023-06-07T19:08:00.020Z,8.20
2023-06-07T19:10:02.486Z,9.30
2023-06-07T19:12:05.245Z,9.47
2023-06-07T19:14:08.162Z,9.00
2023-06-07T19:16:10.550Z,8.20
2023-06-07T19:18:12.856Z,8.93
2023-06-07T19:20:16.520Z,9.30
2023-06-07T19:22:19.362Z,8.53
2023-06-07T19:24:21.727Z,8.57
2023-06-07T19:26:23.966Z,8.97
2023-06-07T19:28:26.232Z,8.30
2023-06-07T19:30:28.497Z,8.27
2023-06-07T19:32:30.966Z,9.30
2023-06-07T19:34:33.840Z,9.30
2023-06-07T19:36:38.119Z,8.60
2023-06-07T19:38:41.664Z,9.07
2023-06-07T19:40:43.903Z,9.20
2023-06-07T19:42:46.135Z,8.80
2023-06-07T19:44:48.476Z,8.63
2023-06-07T19:46:51.068Z,9.30
2023-06-07T19:48:53.551Z,9.63
2023-06-07T19:50:55.834Z,9.43
2023-06-07T19:52:58.364Z,8.27
2023-06-07T19:55:00.658Z,6.80
2023-06-07T19:57:06.701Z,8.10
2023-06-07T19:59:09.313Z,7.00
2023-06-07T20:01:11.527Z,8.03
2023-06-07T20:03:13.812Z,8.43
2023-06-07T20:05:16.132Z,8.00
2023-06-07T20:07:18.459Z,7.50
2023-06-07T20:09:21.136Z,7.77
2023-06-07T20:11:23.504Z,8.43
2023-06-07T20:13:25.809Z,7.60
2023-06-07T20:15:28.046Z,8.53
2023-06-07T20:17:30.380Z,8.13
2023-06-07T20:19:32.655Z,7.87
2023-06-07T20:21:34.863Z,8.53
2023-06-07T20:23:37.192Z,8.23
2023-06-07T20:25:39.426Z,7.93
2023-06-07T20:27:41.761Z,7.03
2023-06-07T20:29:43.991Z,7.63
2023-06-07T20:31:47.541Z,7.23
2023-06-07T20:33:49.889Z,7.40
2023-06-07T20:35:53.276Z,7.70
2023-06-07T20:37:56.033Z,7.67
2023-06-07T20:39:58.248Z,7.27
2023-06-07T20:42:03.336Z,7.33
2023-06-07T20:44:09.185Z,7.90
2023-06-07T20:46:11.437Z,7.80
2023-06-07T20:48:13.847Z,7.33
2023-06-07T20:50:16.321Z,7.37
2023-06-07T20:52:18.619Z,7.60
2023-06-07T20:54:23.277Z,7.50
2023-06-07T20:56:25.626Z,8.60
2023-06-07T20:58:27.846Z,6.70
2023-06-07T21:00:30.946Z,7.40
2023-06-07T21:02:35.661Z,7.50
2023-06-07T21:04:38.021Z,7.53
2023-06-07T21:06:40.243Z,8.00
2023-06-07T21:08:42.854Z,7.40
2023-06-07T21:10:46.394Z,7.27
2023-06-07T21:12:48.684Z,7.47
2023-06-07T21:14:52.402Z,6.80
2023-06-07T21:16:54.598Z,7.47
2023-06-07T21:18:57.033Z,6.80
2023-06-07T21:20:59.201Z,8.00
2023-06-07T21:23:01.499Z,7.50
2023-06-07T21:25:04.070Z,7.53
2023-06-07T21:27:07.650Z,7.30
2023-06-07T21:29:09.907Z,8.00
2023-06-07T21:31:12.117Z,7.27
2023-06-07T21:33:14.357Z,8.00
2023-06-07T21:35:16.652Z,8.20
2023-06-07T21:37:18.973Z,8.27
2023-06-07T21:39:21.224Z,7.53
2023-06-07T21:41:24.154Z,7.47
2023-06-07T21:43:26.413Z,7.50
2023-06-07T21:45:28.657Z,7.70
2023-06-07T21:47:30.980Z,7.90
2023-06-07T21:49:33.289Z,7.57
2023-06-07T21:51:37.849Z,7.57
2023-06-07T21:53:40.147Z,7.73
2023-06-07T21:55:42.332Z,8.03
2023-06-07T21:57:44.780Z,7.63
2023-06-07T21:59:47.125Z,8.63
2023-06-07T22:01:50.873Z,7.90
2023-06-07T22:03:53.177Z,8.40
2023-06-07T22:05:55.468Z,7.93
2023-06-07T22:07:57.725Z,7.90
2023-06-07T22:10:01.505Z,7.57
2023-06-07T22:12:06.984Z,7.10
2023-06-07T22:14:10.567Z,7.57
2023-06-07T22:16:15.775Z,8.23
2023-06-07T22:18:19.429Z,7.53
2023-06-07T22:20:24.818Z,8.53
2023-06-07T22:22:27.761Z,8.80
2023-06-07T22:24:29.967Z,8.97
2023-06-07T22:26:32.974Z,8.80
2023-06-07T22:28:37.750Z,8.30
2023-06-07T22:30:41.221Z,8.60
2023-06-07T22:32:43.517Z,8.80
2023-06-07T22:34:45.964Z,8.60
2023-06-07T22:36:48.211Z,8.70
2023-06-07T22:38:50.374Z,8.70
2023-06-07T22:40:52.529Z,9.50
2023-06-07T22:42:54.628Z,10.00
2023-06-07T22:44:57.220Z,8.30
2023-06-07T22:47:00.016Z,9.23
2023-06-07T22:49:02.271Z,9.33
2023-06-07T22:51:05.324Z,9.37
2023-06-07T22:53:12.241Z,10.23
2023-06-07T22:55:14.354Z,9.93
2023-06-07T22:57:16.581Z,10.03
2023-06-07T22:59:18.716Z,10.90
2023-06-07T23:01:21.114Z,10.17
2023-06-07T23:03:24.548Z,11.60
2023-06-07T23:05:29.953Z,11.00
2023-06-07T23:07:33.223Z,11.17
2023-06-07T23:09:36.734Z,10.27
2023-06-07T23:11:38.937Z,10.53
2023-06-07T23:13:42.112Z,12.07
2023-06-07T23:15:46.405Z,10.17
2023-06-07T23:17:48.525Z,11.00
2023-06-07T23:19:51.361Z,9.83
2023-06-07T23:21:57.012Z,9.90
2023-06-07T23:23:59.430Z,10.33
2023-06-07T23:26:06.206Z,9.60
2023-06-07T23:28:08.436Z,11.13
2023-06-07T23:30:11.366Z,11.67
2023-06-07T23:32:13.679Z,9.60
2023-06-07T23:34:16.256Z,9.87
2023-06-07T23:36:21.559Z,10.33
2023-06-07T23:38:23.632Z,11.20
2023-06-07T23:40:25.857Z,9.53
2023-06-07T23:42:28.539Z,10.60
2023-06-07T23:44:30.874Z,9.37
2023-06-07T23:46:33.076Z,10.07
2023-06-07T23:48:35.125Z,9.90
2023-06-07T23:50:37.295Z,10.80
2023-06-07T23:52:40.729Z,9.60
2023-06-07T23:54:43.274Z,9.70
2023-06-07T23:56:45.485Z,10.00
2023-06-07T23:58:47.590Z,10.40
